Hauptseite
METAR-TAF:

METAR-TAF

Flughäfen :

Passo Rolle, Italien

Breite: 46-18N, Länge: 011-47E, Höhe: 2004 m

Beobachtung

Neuester Wetterbericht von vor 1 Stunde und 33 Minuten, um 08:55 UTC
Wind 2 kt aus Nord
Temperatur -7°C
Luftfeuchtigkeit 93%
Luftdruck 1006 hPa
Sichtweite: 0600 m
Gefrierender Nebel

METAR: LIVR 190855Z 35002KT 0600 FZFG VV/// M07/M08 Q1006 RMK MON INVIS VIS MIN 0600

Zeit: 11:28 (10:28 UTC)


TAF: fehlend

Wetterbeobachtungen und Prognosen von mehr als 4000 Flughäfen (METAR und TAF Bericht).

Die verfügbaren Stationen werden durch gelbe und rote Markierungen auf der Karte dargestellt.

Führen Sie die Maus auf sie, um den Namen der Station zu sehen.

Darauf klicken, um die Beobachtung von Wetterbeobachtungen und Prognosen zu sehen.

Um die Karte zu ändern : klicken Sie auf den grünen Tasten mit einem schwarzen Kreuz Zum Vergrößern, auf den grünen Button mit einem Gedankenstrich zu verkleinern, oder auf die grünen Pfeile für benachbarte Karten.


METAR-TAF: